createdAt,value
2019-03-28T00:00:52.628Z,5.00
2019-03-28T00:03:21.999Z,4.90
2019-03-28T00:05:51.216Z,5.53
2019-03-28T00:08:20.456Z,5.67
2019-03-28T00:10:49.996Z,5.80
2019-03-28T00:13:19.500Z,6.12
2019-03-28T00:15:48.828Z,6.17
2019-03-28T00:18:18.133Z,5.80
2019-03-28T00:20:47.447Z,5.70
2019-03-28T00:23:21.418Z,5.78
2019-03-28T00:25:50.634Z,5.80
2019-03-28T00:28:19.871Z,6.30
2019-03-28T00:30:49.167Z,6.17
2019-03-28T00:33:18.563Z,5.65
2019-03-28T00:35:48.083Z,5.78
2019-03-28T00:38:17.619Z,5.33
2019-03-28T00:40:47.195Z,6.03
2019-03-28T00:43:16.737Z,5.87
2019-03-28T00:45:46.221Z,5.87
2019-03-28T00:48:15.689Z,6.00
2019-03-28T00:50:45.102Z,5.92
2019-03-28T00:53:14.469Z,5.95
2019-03-28T00:55:53.936Z,6.15
2019-03-28T00:58:23.218Z,5.70
2019-03-28T01:00:53.659Z,5.15
2019-03-28T01:03:22.948Z,5.87
2019-03-28T01:05:53.317Z,6.20
2019-03-28T01:08:22.632Z,6.37
2019-03-28T01:10:51.965Z,6.22
2019-03-28T01:13:21.277Z,5.92
2019-03-28T01:15:50.659Z,6.08
2019-03-28T01:18:20.199Z,6.05
2019-03-28T01:20:49.611Z,6.20
2019-03-28T01:23:18.867Z,6.03
2019-03-28T01:25:48.096Z,6.50
2019-03-28T01:28:17.344Z,5.95
2019-03-28T01:30:46.593Z,6.72
2019-03-28T01:33:15.913Z,6.50
2019-03-28T01:35:45.155Z,6.70
2019-03-28T01:38:14.338Z,5.97
2019-03-28T01:40:43.717Z,6.37
2019-03-28T01:43:12.958Z,6.35
2019-03-28T01:45:43.363Z,6.42
2019-03-28T01:48:13.855Z,6.37
2019-03-28T01:50:43.026Z,6.05
2019-03-28T01:53:12.348Z,6.37
2019-03-28T01:55:41.721Z,6.37
2019-03-28T01:58:10.901Z,5.53
2019-03-28T02:00:40.096Z,6.05
2019-03-28T02:03:09.254Z,5.35
2019-03-28T02:05:38.499Z,6.78
2019-03-28T02:08:07.851Z,5.90
2019-03-28T02:10:37.096Z,6.20
2019-03-28T02:13:06.323Z,6.60
2019-03-28T02:15:35.721Z,6.33
2019-03-28T02:18:05.012Z,6.72
2019-03-28T02:20:34.370Z,6.30
2019-03-28T02:23:03.823Z,6.15
2019-03-28T02:25:33.062Z,6.20
2019-03-28T02:28:21.723Z,6.30
2019-03-28T02:30:51.014Z,6.00
2019-03-28T02:33:39.588Z,6.17
2019-03-28T02:36:08.849Z,5.95
2019-03-28T02:38:38.132Z,5.70
2019-03-28T02:41:08.665Z,5.40
2019-03-28T02:43:38.345Z,4.87
2019-03-28T02:46:07.678Z,4.90
2019-03-28T02:48:37.022Z,4.92
2019-03-28T02:51:06.263Z,5.00
2019-03-28T02:53:35.473Z,4.55
2019-03-28T02:56:04.785Z,4.72
2019-03-28T02:58:34.091Z,4.97
2019-03-28T03:01:03.526Z,4.92
2019-03-28T03:03:32.945Z,4.97
2019-03-28T03:06:02.286Z,5.10
2019-03-28T03:08:31.587Z,4.83
2019-03-28T03:11:00.898Z,4.90
2019-03-28T03:13:30.202Z,4.72
2019-03-28T03:15:59.428Z,4.92
2019-03-28T03:18:28.650Z,4.78
2019-03-28T03:20:57.943Z,4.50
2019-03-28T03:23:27.255Z,4.60
2019-03-28T03:25:56.433Z,4.62
2019-03-28T03:28:25.801Z,5.00
2019-03-28T03:30:55.024Z,4.62
2019-03-28T03:33:24.340Z,4.55
2019-03-28T03:35:53.617Z,4.47
2019-03-28T03:38:34.893Z,5.03
2019-03-28T03:41:04.149Z,4.15
2019-03-28T03:43:33.384Z,4.55
2019-03-28T03:46:02.708Z,4.47
2019-03-28T03:48:32.039Z,4.60
2019-03-28T03:51:01.303Z,4.90
2019-03-28T03:53:30.666Z,4.75
2019-03-28T03:56:00.025Z,4.20
2019-03-28T03:58:29.314Z,5.33
2019-03-28T04:00:58.611Z,5.10
2019-03-28T04:03:27.890Z,4.80
2019-03-28T04:05:57.250Z,4.80
2019-03-28T04:08:27.130Z,5.10
2019-03-28T04:11:06.926Z,4.87
2019-03-28T04:13:36.553Z,4.58
2019-03-28T04:16:06.202Z,5.00
2019-03-28T04:18:35.557Z,4.87
2019-03-28T04:21:04.848Z,4.62
2019-03-28T04:23:34.138Z,4.80
2019-03-28T04:26:03.406Z,4.90
2019-03-28T04:28:33.869Z,5.42
2019-03-28T04:31:03.177Z,5.45
2019-03-28T04:33:32.538Z,5.28
2019-03-28T04:36:01.843Z,5.60
2019-03-28T04:38:31.240Z,4.83
2019-03-28T04:41:00.621Z,4.83
2019-03-28T04:43:30.186Z,4.70
2019-03-28T04:45:59.485Z,5.25
2019-03-28T04:48:28.772Z,5.25
2019-03-28T04:50:59.266Z,5.40
2019-03-28T04:53:29.700Z,4.80
2019-03-28T04:55:59.535Z,5.00
2019-03-28T04:58:29.138Z,6.10
2019-03-28T05:01:08.407Z,5.78
2019-03-28T05:03:37.746Z,6.10
2019-03-28T05:06:08.807Z,6.22
2019-03-28T05:08:38.090Z,5.80
2019-03-28T05:11:07.497Z,5.90
2019-03-28T05:13:36.837Z,6.10
2019-03-28T05:16:06.167Z,6.30
2019-03-28T05:18:35.450Z,5.70
2019-03-28T05:21:17.313Z,6.35
2019-03-28T05:23:46.640Z,6.72
2019-03-28T05:26:16.083Z,6.17
2019-03-28T05:28:56.898Z,7.10
2019-03-28T05:31:17.556Z,6.87
2019-03-28T05:34:06.414Z,6.40
2019-03-28T05:36:35.777Z,7.08
2019-03-28T05:39:06.524Z,6.78
2019-03-28T05:41:36.028Z,7.12
2019-03-28T05:44:05.688Z,6.70
2019-03-28T05:46:34.968Z,6.55
2019-03-28T05:49:04.261Z,6.17
2019-03-28T05:51:34.658Z,6.22
2019-03-28T05:54:04.111Z,6.37
2019-03-28T05:56:33.364Z,7.08
2019-03-28T05:59:10.697Z,6.83
2019-03-28T06:01:33.639Z,7.35
2019-03-28T06:04:02.912Z,6.25
2019-03-28T06:06:32.074Z,6.90
2019-03-28T06:09:20.779Z,6.65
2019-03-28T06:11:52.858Z,7.10
2019-03-28T06:14:21.066Z,6.78
2019-03-28T06:16:50.314Z,6.60
2019-03-28T06:19:19.542Z,6.70
2019-03-28T06:21:48.764Z,5.85
2019-03-28T06:24:18.023Z,5.50
2019-03-28T06:26:49.890Z,6.53
2019-03-28T06:29:23.673Z,4.87
2019-03-28T06:31:55.186Z,5.30
2019-03-28T06:34:20.099Z,5.55
2019-03-28T06:36:49.265Z,5.17
2019-03-28T06:39:18.484Z,5.20
2019-03-28T06:41:48.546Z,4.72
2019-03-28T06:44:18.097Z,5.15
2019-03-28T06:46:47.394Z,5.20
2019-03-28T06:49:16.613Z,5.70
2019-03-28T06:51:45.896Z,16.05
2019-03-28T06:54:15.314Z,30.08
2019-03-28T06:56:44.609Z,13.72
2019-03-28T06:59:13.951Z,6.50
2019-03-28T07:01:43.264Z,5.50
2019-03-28T07:04:12.691Z,4.92
2019-03-28T07:06:41.980Z,4.83
2019-03-28T07:09:11.338Z,5.33
2019-03-28T07:11:52.724Z,5.03
2019-03-28T07:14:22.086Z,5.67
2019-03-28T07:16:51.391Z,5.00
2019-03-28T07:19:20.750Z,17.50
2019-03-28T07:21:50.036Z,7.50
2019-03-28T07:24:19.416Z,6.55
2019-03-28T07:26:48.656Z,6.17
2019-03-28T07:29:17.946Z,5.50
2019-03-28T07:31:47.308Z,5.50
2019-03-28T07:34:16.565Z,4.95
2019-03-28T07:36:46.391Z,5.45
2019-03-28T07:39:18.846Z,5.22
2019-03-28T07:41:46.633Z,9.88
2019-03-28T07:44:15.938Z,7.80
2019-03-28T07:46:47.521Z,5.15
2019-03-28T07:49:16.205Z,5.80
2019-03-28T07:51:45.536Z,4.75
2019-03-28T07:54:15.999Z,5.37
2019-03-28T07:56:45.346Z,4.53
2019-03-28T07:59:14.727Z,5.75
2019-03-28T08:01:44.009Z,6.00
2019-03-28T08:04:13.414Z,5.00
2019-03-28T08:06:49.572Z,5.10
2019-03-28T08:09:17.437Z,4.90
2019-03-28T08:11:48.265Z,4.62
2019-03-28T08:14:16.655Z,4.87
2019-03-28T08:16:45.962Z,4.83
2019-03-28T08:19:15.312Z,5.03
2019-03-28T08:21:44.612Z,4.87
2019-03-28T08:24:13.857Z,5.83
2019-03-28T08:26:43.115Z,5.87
2019-03-28T08:29:12.270Z,5.40
2019-03-28T08:31:43.429Z,5.97
2019-03-28T08:34:12.729Z,5.80
2019-03-28T08:36:42.729Z,6.15
2019-03-28T08:39:12.006Z,4.45
2019-03-28T08:41:41.392Z,5.50
2019-03-28T08:44:10.752Z,5.60
2019-03-28T08:46:40.365Z,8.20
2019-03-28T08:49:09.581Z,5.17
2019-03-28T08:51:38.929Z,4.22
2019-03-28T08:54:08.198Z,5.10
2019-03-28T08:56:38.639Z,4.47
2019-03-28T08:59:08.020Z,4.60
2019-03-28T09:01:37.316Z,4.40
2019-03-28T09:04:06.652Z,4.65
2019-03-28T09:06:35.916Z,5.10
2019-03-28T09:09:06.649Z,5.45
2019-03-28T09:11:35.952Z,5.33
2019-03-28T09:14:06.466Z,5.10
2019-03-28T09:16:35.876Z,5.45
2019-03-28T09:19:06.296Z,5.20
2019-03-28T09:21:35.674Z,5.40
2019-03-28T09:24:05.004Z,5.45
2019-03-28T09:26:34.366Z,5.05
2019-03-28T09:29:03.680Z,5.00
2019-03-28T09:31:32.980Z,4.78
2019-03-28T09:34:02.286Z,4.92
2019-03-28T09:36:31.536Z,4.90
2019-03-28T09:39:00.838Z,5.00
2019-03-28T09:41:31.744Z,4.95
2019-03-28T09:44:01.050Z,4.70
2019-03-28T09:46:30.213Z,4.97
2019-03-28T09:48:59.474Z,5.80
2019-03-28T09:51:28.711Z,5.75
2019-03-28T09:53:57.852Z,5.85
2019-03-28T09:56:27.081Z,5.50
2019-03-28T09:58:56.355Z,5.95
2019-03-28T10:01:25.710Z,4.92
2019-03-28T10:03:55.299Z,5.67
2019-03-28T10:06:24.587Z,5.47
2019-03-28T10:08:53.948Z,6.45
2019-03-28T10:11:23.245Z,5.78
2019-03-28T10:13:52.520Z,6.47
2019-03-28T10:16:21.829Z,7.00
2019-03-28T10:18:51.090Z,6.08
2019-03-28T10:21:20.313Z,6.30
2019-03-28T10:23:49.556Z,7.03
2019-03-28T10:26:18.779Z,6.40
2019-03-28T10:28:48.065Z,6.78
2019-03-28T10:31:17.303Z,7.10
2019-03-28T10:33:46.603Z,5.92
2019-03-28T10:36:15.838Z,6.37
2019-03-28T10:38:45.123Z,6.33
2019-03-28T10:41:14.447Z,6.30
2019-03-28T10:43:43.763Z,5.67
2019-03-28T10:46:13.032Z,6.60
2019-03-28T10:48:42.268Z,6.65
2019-03-28T10:51:11.493Z,5.87
2019-03-28T10:53:40.780Z,5.83
2019-03-28T10:56:21.097Z,6.40
2019-03-28T10:58:41.190Z,5.95
2019-03-28T11:01:10.518Z,5.72
2019-03-28T11:03:39.765Z,6.55
2019-03-28T11:06:08.924Z,6.03
2019-03-28T11:08:38.147Z,5.62
2019-03-28T11:11:07.314Z,5.75
2019-03-28T11:13:36.549Z,5.62
2019-03-28T11:16:05.799Z,6.08
2019-03-28T11:18:35.083Z,5.42
2019-03-28T11:21:05.541Z,7.03
2019-03-28T11:23:34.850Z,6.55
2019-03-28T11:26:04.163Z,5.62
2019-03-28T11:28:33.403Z,5.42
2019-03-28T11:31:02.718Z,5.55
2019-03-28T11:33:31.917Z,6.08
2019-03-28T11:36:01.214Z,5.58
2019-03-28T11:38:30.879Z,6.37
2019-03-28T11:41:00.195Z,5.78
2019-03-28T11:43:29.453Z,6.28
2019-03-28T11:45:58.798Z,5.08
2019-03-28T11:48:28.087Z,5.35
2019-03-28T11:50:57.438Z,11.15
2019-03-28T11:53:27.037Z,6.42
2019-03-28T11:55:56.324Z,6.45
2019-03-28T11:58:25.675Z,5.75
2019-03-28T12:00:54.964Z,5.47
2019-03-28T12:03:24.267Z,5.85
2019-03-28T12:05:53.537Z,6.30
2019-03-28T12:08:22.991Z,5.80
2019-03-28T12:10:52.292Z,8.38
2019-03-28T12:13:21.598Z,6.67
2019-03-28T12:15:51.149Z,5.40
2019-03-28T12:18:20.631Z,5.33
2019-03-28T12:20:50.192Z,8.23
2019-03-28T12:23:19.479Z,6.87
2019-03-28T12:25:48.762Z,7.15
2019-03-28T12:28:17.963Z,5.85
2019-03-28T12:30:47.326Z,5.15
2019-03-28T12:33:16.540Z,5.75
2019-03-28T12:35:47.532Z,5.60
2019-03-28T12:38:16.760Z,5.87
2019-03-28T12:40:46.028Z,6.08
2019-03-28T12:43:15.355Z,6.22
2019-03-28T12:45:44.632Z,5.80
2019-03-28T12:48:13.938Z,5.58
2019-03-28T12:50:43.132Z,5.28
2019-03-28T12:53:12.425Z,4.72
2019-03-28T12:55:41.918Z,5.78
2019-03-28T12:58:12.838Z,5.55
2019-03-28T13:00:45.707Z,6.10
2019-03-28T13:03:15.007Z,5.47
2019-03-28T13:05:44.174Z,5.92
2019-03-28T13:08:13.345Z,5.28
2019-03-28T13:10:42.746Z,5.30
2019-03-28T13:13:12.046Z,5.42
2019-03-28T13:15:41.414Z,4.58
2019-03-28T13:18:10.708Z,4.30
2019-03-28T13:20:40.002Z,5.05
2019-03-28T13:23:09.300Z,5.03
2019-03-28T13:25:38.600Z,5.37
2019-03-28T13:28:07.887Z,5.37
2019-03-28T13:30:37.163Z,4.53
2019-03-28T13:33:06.457Z,4.97
2019-03-28T13:35:35.794Z,4.75
2019-03-28T13:38:05.159Z,5.50
2019-03-28T13:40:34.628Z,4.72
2019-03-28T13:43:04.664Z,4.75
2019-03-28T13:45:34.432Z,4.85
2019-03-28T13:48:03.721Z,5.05
2019-03-28T13:50:32.987Z,5.00
2019-03-28T13:53:02.283Z,5.62
2019-03-28T13:55:31.621Z,5.62
2019-03-28T13:58:00.920Z,5.72
2019-03-28T14:00:32.232Z,6.25
2019-03-28T14:03:01.687Z,7.53
2019-03-28T14:05:30.890Z,7.72
2019-03-28T14:08:01.510Z,5.42
2019-03-28T14:10:31.128Z,5.08
2019-03-28T14:13:00.400Z,5.03
2019-03-28T14:15:29.858Z,4.95
2019-03-28T14:17:59.095Z,4.72
2019-03-28T14:20:28.365Z,5.33
2019-03-28T14:22:57.542Z,5.83
2019-03-28T14:25:26.779Z,5.60
2019-03-28T14:27:56.036Z,4.90
2019-03-28T14:30:25.454Z,4.08
2019-03-28T14:32:56.832Z,4.62
2019-03-28T14:35:25.662Z,4.42
2019-03-28T14:37:55.103Z,3.95
2019-03-28T14:40:24.649Z,3.87
2019-03-28T14:42:54.223Z,5.12
2019-03-28T14:45:23.504Z,5.80
2019-03-28T14:47:52.849Z,4.75
2019-03-28T14:50:33.695Z,5.08
2019-03-28T14:53:03.434Z,5.25
2019-03-28T14:55:32.599Z,4.72
2019-03-28T14:58:04.978Z,5.45
2019-03-28T15:00:42.786Z,5.03
2019-03-28T15:03:25.075Z,4.90
2019-03-28T15:05:42.954Z,5.08
2019-03-28T15:08:12.440Z,4.33
2019-03-28T15:10:41.831Z,4.97
2019-03-28T15:13:11.138Z,5.28
2019-03-28T15:15:40.498Z,5.30
2019-03-28T15:18:09.833Z,4.55
2019-03-28T15:20:39.081Z,4.90
2019-03-28T15:23:08.311Z,5.40
2019-03-28T15:25:37.655Z,4.72
2019-03-28T15:28:07.041Z,5.25
2019-03-28T15:30:36.542Z,4.90
2019-03-28T15:33:09.161Z,5.37
2019-03-28T15:35:40.875Z,4.85
2019-03-28T15:38:10.080Z,5.40
2019-03-28T15:40:39.387Z,5.35
2019-03-28T15:43:09.376Z,5.70
2019-03-28T15:45:38.789Z,5.72
2019-03-28T15:48:09.905Z,5.30
2019-03-28T15:50:39.645Z,5.85
2019-03-28T15:53:09.118Z,5.67
2019-03-28T15:55:38.381Z,5.50
2019-03-28T15:58:22.136Z,5.03
2019-03-28T16:00:39.718Z,6.20
2019-03-28T16:03:09.114Z,7.50
2019-03-28T16:05:38.484Z,6.90
2019-03-28T16:08:07.919Z,6.80
2019-03-28T16:10:37.199Z,6.05
2019-03-28T16:13:25.930Z,6.12
2019-03-28T16:15:55.178Z,5.83
2019-03-28T16:18:24.348Z,5.80
2019-03-28T16:20:53.669Z,5.92
2019-03-28T16:23:22.950Z,6.40
2019-03-28T16:25:52.266Z,6.35
2019-03-28T16:28:21.506Z,6.92
2019-03-28T16:30:50.766Z,6.67
2019-03-28T16:33:21.188Z,6.87
2019-03-28T16:35:50.408Z,6.55
2019-03-28T16:38:20.750Z,7.12
2019-03-28T16:40:50.116Z,6.78
2019-03-28T16:43:19.419Z,6.87
2019-03-28T16:45:48.744Z,6.70
2019-03-28T16:48:37.542Z,6.58
2019-03-28T16:51:06.831Z,6.70
2019-03-28T16:53:36.068Z,6.25
2019-03-28T16:56:06.455Z,6.80
2019-03-28T16:58:35.831Z,7.33
2019-03-28T17:01:05.081Z,6.08
2019-03-28T17:03:34.375Z,7.75
2019-03-28T17:06:03.994Z,7.08
2019-03-28T17:08:33.390Z,10.35
2019-03-28T17:11:02.700Z,7.20
2019-03-28T17:13:31.939Z,8.28
2019-03-28T17:16:01.252Z,9.88
2019-03-28T17:18:50.049Z,6.95
2019-03-28T17:21:19.264Z,7.50
2019-03-28T17:23:48.494Z,7.10
2019-03-28T17:26:17.727Z,7.05
2019-03-28T17:28:46.952Z,7.08
2019-03-28T17:31:16.493Z,7.97
2019-03-28T17:33:45.737Z,7.28
2019-03-28T17:36:14.980Z,7.60
2019-03-28T17:38:44.273Z,7.62
2019-03-28T17:41:13.574Z,7.72
2019-03-28T17:43:42.866Z,7.58
2019-03-28T17:46:12.576Z,7.20
2019-03-28T17:48:42.373Z,7.85
2019-03-28T17:51:11.776Z,7.90
2019-03-28T17:53:41.081Z,8.58
2019-03-28T17:56:11.639Z,7.65
2019-03-28T17:58:40.897Z,7.65
2019-03-28T18:01:10.339Z,7.55
2019-03-28T18:03:39.857Z,7.42
2019-03-28T18:06:09.036Z,8.03
2019-03-28T18:08:38.373Z,8.50
2019-03-28T18:11:07.787Z,8.00
2019-03-28T18:13:37.415Z,8.45
2019-03-28T18:16:07.617Z,8.70
2019-03-28T18:18:38.165Z,9.30
2019-03-28T18:21:07.387Z,10.18
2019-03-28T18:23:38.299Z,7.95
2019-03-28T18:26:07.516Z,9.10
2019-03-28T18:28:37.209Z,8.95
2019-03-28T18:31:06.817Z,11.43
2019-03-28T18:33:36.622Z,10.30
2019-03-28T18:36:06.294Z,9.78
2019-03-28T18:38:36.784Z,10.15
2019-03-28T18:41:06.517Z,10.60
2019-03-28T18:43:37.230Z,10.03
2019-03-28T18:46:07.862Z,10.10
2019-03-28T18:48:38.354Z,9.33
2019-03-28T18:51:07.903Z,9.63
2019-03-28T18:53:37.210Z,10.53
2019-03-28T18:56:06.885Z,10.80
2019-03-28T18:58:36.101Z,10.32
2019-03-28T19:01:05.797Z,11.08
2019-03-28T19:03:35.043Z,12.28
2019-03-28T19:06:04.526Z,13.30
2019-03-28T19:08:33.757Z,16.05
2019-03-28T19:11:04.513Z,12.00
2019-03-28T19:13:33.789Z,12.63
2019-03-28T19:16:03.105Z,11.97
2019-03-28T19:18:33.376Z,14.87
2019-03-28T19:21:02.702Z,11.90
2019-03-28T19:23:32.016Z,11.95
2019-03-28T19:26:01.857Z,12.13
2019-03-28T19:28:31.083Z,12.00
2019-03-28T19:31:00.410Z,11.55
2019-03-28T19:33:30.055Z,12.30
2019-03-28T19:36:01.377Z,12.78
2019-03-28T19:38:31.110Z,12.55
2019-03-28T19:41:00.304Z,11.73
2019-03-28T19:43:29.631Z,12.90
2019-03-28T19:45:58.930Z,11.55
2019-03-28T19:48:28.248Z,12.05
2019-03-28T19:50:57.617Z,12.80
2019-03-28T19:53:26.943Z,12.82
2019-03-28T19:55:56.228Z,13.72
2019-03-28T19:58:25.620Z,12.47
2019-03-28T20:00:54.991Z,12.55
2019-03-28T20:03:24.283Z,13.58
2019-03-28T20:05:53.674Z,13.18
2019-03-28T20:08:25.937Z,11.95
2019-03-28T20:10:53.957Z,12.58
2019-03-28T20:13:23.993Z,13.15
2019-03-28T20:15:53.594Z,12.03
2019-03-28T20:18:22.994Z,13.32
2019-03-28T20:20:55.522Z,12.55
2019-03-28T20:23:23.286Z,12.15
2019-03-28T20:25:52.664Z,12.23
2019-03-28T20:28:21.897Z,12.55
2019-03-28T20:30:53.755Z,12.13
2019-03-28T20:33:24.892Z,12.90
2019-03-28T20:36:11.761Z,12.40
2019-03-28T20:38:25.302Z,12.60
2019-03-28T20:40:54.572Z,13.58
2019-03-28T20:43:23.815Z,13.13
2019-03-28T20:45:53.114Z,12.88
2019-03-28T20:48:22.427Z,12.58
2019-03-28T20:50:51.779Z,13.28
2019-03-28T20:53:21.168Z,12.78
2019-03-28T20:55:51.750Z,12.90
2019-03-28T20:58:21.212Z,12.73
2019-03-28T21:00:50.486Z,12.73
2019-03-28T21:03:19.742Z,13.18
2019-03-28T21:05:49.040Z,12.78
2019-03-28T21:08:19.904Z,12.35
2019-03-28T21:10:49.169Z,12.88
2019-03-28T21:13:18.520Z,12.82
2019-03-28T21:15:47.836Z,12.00
2019-03-28T21:18:17.068Z,12.13
2019-03-28T21:20:46.339Z,11.83
2019-03-28T21:23:15.769Z,11.35
2019-03-28T21:25:45.210Z,11.83
2019-03-28T21:28:14.605Z,12.63
2019-03-28T21:30:47.622Z,11.70
2019-03-28T21:33:17.258Z,10.85
2019-03-28T21:35:46.695Z,11.78
2019-03-28T21:38:16.972Z,10.88
2019-03-28T21:40:46.886Z,11.43
2019-03-28T21:43:17.774Z,11.20
2019-03-28T21:45:48.951Z,10.63
2019-03-28T21:48:19.346Z,11.12
2019-03-28T21:50:48.935Z,10.88
2019-03-28T21:53:19.931Z,11.00
2019-03-28T21:55:54.919Z,11.78
2019-03-28T21:58:20.086Z,11.40
2019-03-28T22:00:49.397Z,11.43
2019-03-28T22:03:18.640Z,12.88
2019-03-28T22:05:49.018Z,11.73
2019-03-28T22:08:18.312Z,11.28
2019-03-28T22:10:47.685Z,10.45
2019-03-28T22:13:16.984Z,10.88
2019-03-28T22:15:46.363Z,10.35
2019-03-28T22:18:15.655Z,10.48
2019-03-28T22:20:44.991Z,10.23
2019-03-28T22:23:14.324Z,10.30
2019-03-28T22:25:43.627Z,9.93
2019-03-28T22:28:13.018Z,9.63
2019-03-28T22:30:42.278Z,9.08
2019-03-28T22:33:11.598Z,9.10
2019-03-28T22:35:40.879Z,8.68
2019-03-28T22:38:10.152Z,9.00
2019-03-28T22:40:39.579Z,11.08
2019-03-28T22:43:08.800Z,10.20
2019-03-28T22:45:38.200Z,9.25
2019-03-28T22:48:10.943Z,9.40
2019-03-28T22:50:38.402Z,9.30
2019-03-28T22:53:10.630Z,8.40
2019-03-28T22:55:41.111Z,9.35
2019-03-28T22:58:10.435Z,9.55
2019-03-28T23:00:46.488Z,9.30
2019-03-28T23:03:17.671Z,9.40
2019-03-28T23:05:46.997Z,8.90
2019-03-28T23:08:22.082Z,9.03
2019-03-28T23:10:51.326Z,8.53
2019-03-28T23:13:20.977Z,8.30
2019-03-28T23:15:51.960Z,7.42
2019-03-28T23:18:21.360Z,7.97
2019-03-28T23:20:50.817Z,7.80
2019-03-28T23:23:20.058Z,8.83
2019-03-28T23:25:49.385Z,8.10
2019-03-28T23:28:18.968Z,7.20
2019-03-28T23:30:48.851Z,8.05
2019-03-28T23:33:18.335Z,8.25
2019-03-28T23:35:47.875Z,7.28
2019-03-28T23:38:17.179Z,7.72
2019-03-28T23:40:47.555Z,8.00
2019-03-28T23:43:16.857Z,7.72
2019-03-28T23:45:46.161Z,8.10
2019-03-28T23:48:16.724Z,7.45
2019-03-28T23:50:46.047Z,7.50
2019-03-28T23:53:15.361Z,8.05
2019-03-28T23:55:44.960Z,7.53
2019-03-28T23:58:14.653Z,7.37
